createdAt,value
2022-10-31T00:01:26.762Z,7.18
2022-10-31T00:03:54.202Z,6.00
2022-10-31T00:06:21.841Z,8.90
2022-10-31T00:08:53.654Z,6.50
2022-10-31T00:11:20.891Z,5.57
2022-10-31T00:13:47.940Z,12.68
2022-10-31T00:16:19.739Z,10.00
2022-10-31T00:18:50.577Z,6.50
2022-10-31T00:21:17.617Z,8.65
2022-10-31T00:23:44.761Z,10.65
2022-10-31T00:26:11.694Z,9.60
2022-10-31T00:28:38.655Z,7.05
2022-10-31T00:31:07.933Z,11.02
2022-10-31T00:33:37.655Z,6.97
2022-10-31T00:36:06.293Z,5.18
2022-10-31T00:38:33.694Z,5.32
2022-10-31T00:41:00.702Z,9.60
2022-10-31T00:43:27.549Z,8.00
2022-10-31T00:45:54.729Z,4.82
2022-10-31T00:48:25.326Z,8.02
2022-10-31T00:50:53.556Z,7.80
2022-10-31T00:53:20.459Z,4.80
2022-10-31T00:55:47.794Z,13.65
2022-10-31T01:00:57.426Z,6.00
2022-10-31T01:03:30.366Z,7.05
2022-10-31T01:06:01.597Z,6.03
2022-10-31T01:08:29.305Z,9.40
2022-10-31T01:11:26.103Z,7.93
2022-10-31T01:13:54.202Z,6.70
2022-10-31T01:16:24.387Z,6.03
2022-10-31T01:18:52.394Z,8.25
2022-10-31T01:21:25.228Z,11.88
2022-10-31T01:23:54.724Z,5.55
2022-10-31T01:26:24.321Z,9.95
2022-10-31T01:28:56.424Z,7.07
2022-10-31T01:31:26.134Z,8.00
2022-10-31T01:33:53.746Z,7.55
2022-10-31T01:36:29.786Z,5.80
2022-10-31T01:38:58.807Z,7.82
2022-10-31T01:41:31.275Z,7.85
2022-10-31T01:44:02.831Z,5.75
2022-10-31T01:46:39.966Z,6.85
2022-10-31T01:49:12.730Z,6.03
2022-10-31T01:51:46.125Z,9.80
2022-10-31T01:54:16.920Z,9.60
2022-10-31T01:56:48.360Z,4.85
2022-10-31T01:59:20.610Z,4.72
2022-10-31T02:01:48.898Z,7.82
2022-10-31T02:04:16.867Z,8.88
2022-10-31T02:06:52.136Z,12.63
2022-10-31T02:09:24.465Z,8.05
2022-10-31T02:11:54.501Z,8.25
2022-10-31T02:14:27.987Z,8.52
2022-10-31T02:16:55.629Z,9.60
2022-10-31T02:20:13.158Z,10.00
2022-10-31T02:22:51.514Z,9.15
2022-10-31T02:25:40.168Z,7.32
2022-10-31T02:28:35.998Z,9.15
2022-10-31T02:31:12.117Z,8.90
2022-10-31T02:33:51.883Z,6.75
2022-10-31T02:36:35.097Z,7.13
2022-10-31T02:39:19.753Z,6.50
2022-10-31T02:42:10.264Z,6.68
2022-10-31T02:44:45.791Z,7.47
2022-10-31T02:47:15.411Z,7.35
2022-10-31T02:49:51.734Z,7.07
2022-10-31T02:52:20.009Z,6.43
2022-10-31T02:54:48.755Z,8.60
2022-10-31T02:57:18.451Z,12.60
2022-10-31T02:59:49.998Z,8.55
2022-10-31T03:02:19.865Z,6.85
2022-10-31T03:04:52.862Z,9.50
2022-10-31T03:07:38.553Z,8.38
2022-10-31T03:10:08.421Z,7.85
2022-10-31T03:12:47.692Z,9.90
2022-10-31T03:15:45.169Z,5.18
2022-10-31T03:18:30.585Z,8.30
2022-10-31T03:21:12.946Z,8.65
2022-10-31T03:23:41.174Z,6.05
2022-10-31T03:26:10.475Z,5.38
2022-10-31T03:28:47.245Z,8.10
2022-10-31T03:31:19.399Z,9.90
2022-10-31T03:33:48.817Z,11.32
2022-10-31T03:36:17.729Z,8.00
2022-10-31T03:38:47.646Z,7.85
2022-10-31T03:41:22.472Z,9.52
2022-10-31T03:43:59.191Z,7.00
2022-10-31T03:46:26.698Z,9.60
2022-10-31T03:48:56.983Z,12.02
2022-10-31T03:51:26.734Z,7.35
2022-10-31T03:53:53.637Z,7.68
2022-10-31T03:56:35.582Z,9.38
2022-10-31T03:59:27.192Z,8.35
2022-10-31T04:02:00.630Z,9.43
2022-10-31T04:04:30.116Z,11.35
2022-10-31T04:06:59.910Z,7.47
2022-10-31T04:09:28.930Z,6.70
2022-10-31T04:11:59.373Z,7.22
2022-10-31T04:14:48.797Z,9.45
2022-10-31T04:17:19.932Z,8.88
2022-10-31T04:19:47.132Z,7.47
2022-10-31T04:22:14.481Z,9.05
2022-10-31T04:24:42.079Z,7.15
2022-10-31T04:27:12.293Z,6.65
2022-10-31T04:29:39.089Z,7.45
2022-10-31T04:32:06.026Z,6.97
2022-10-31T04:34:32.835Z,7.95
2022-10-31T04:36:59.751Z,5.38
2022-10-31T04:39:26.940Z,8.57
2022-10-31T04:42:32.227Z,7.28
2022-10-31T04:45:02.461Z,8.30
2022-10-31T04:47:35.417Z,6.15
2022-10-31T04:50:03.108Z,6.45
2022-10-31T04:52:29.979Z,9.88
2022-10-31T04:54:57.949Z,6.53
2022-10-31T04:57:45.126Z,8.90
2022-10-31T05:00:15.415Z,7.18
2022-10-31T05:02:49.945Z,5.45
2022-10-31T05:05:19.142Z,8.45
2022-10-31T05:07:48.696Z,9.20
2022-10-31T05:10:21.047Z,8.05
2022-10-31T05:12:52.213Z,9.07
2022-10-31T05:15:37.761Z,9.35
2022-10-31T05:18:24.930Z,6.93
2022-10-31T05:21:10.372Z,12.60
2022-10-31T05:23:51.045Z,6.32
2022-10-31T05:26:18.560Z,7.78
2022-10-31T05:28:45.532Z,7.28
2022-10-31T05:31:12.436Z,10.20
2022-10-31T05:33:39.358Z,9.48
2022-10-31T05:36:25.056Z,8.75
2022-10-31T05:38:58.849Z,6.40
2022-10-31T05:41:29.953Z,8.27
2022-10-31T05:44:13.060Z,10.15
2022-10-31T05:46:56.868Z,8.98
2022-10-31T05:49:42.345Z,6.32
2022-10-31T05:52:27.970Z,6.60
2022-10-31T05:55:02.030Z,15.60
2022-10-31T05:57:30.532Z,9.75
2022-10-31T05:59:57.657Z,6.80
2022-10-31T06:02:24.879Z,7.80
2022-10-31T06:05:27.656Z,4.95
2022-10-31T06:07:55.435Z,7.55
2022-10-31T06:10:24.159Z,9.93
2022-10-31T06:12:54.298Z,7.03
2022-10-31T06:15:29.013Z,6.03
2022-10-31T06:18:05.637Z,6.57
2022-10-31T06:20:42.873Z,7.00
2022-10-31T06:23:09.761Z,9.13
2022-10-31T06:25:37.111Z,4.95
2022-10-31T06:28:06.132Z,8.68
2022-10-31T06:30:51.725Z,7.63
2022-10-31T06:33:19.239Z,6.40
2022-10-31T06:35:56.247Z,6.47
2022-10-31T06:38:23.674Z,6.80
2022-10-31T06:40:50.612Z,10.60
2022-10-31T06:43:26.494Z,8.18
2022-10-31T06:46:17.214Z,6.55
2022-10-31T06:48:58.591Z,6.78
2022-10-31T06:51:41.902Z,12.95
2022-10-31T06:54:08.789Z,7.55
2022-10-31T06:56:35.804Z,8.52
2022-10-31T06:59:04.271Z,10.82
2022-10-31T07:01:51.477Z,8.48
2022-10-31T07:04:20.129Z,6.05
2022-10-31T07:06:51.738Z,4.85
2022-10-31T07:09:20.121Z,10.00
2022-10-31T07:11:48.022Z,5.20
2022-10-31T07:14:15.548Z,9.65
2022-10-31T07:16:42.583Z,8.05
2022-10-31T07:19:12.214Z,6.53
2022-10-31T07:21:39.132Z,5.18
2022-10-31T07:24:07.121Z,6.53
2022-10-31T07:26:43.415Z,5.80
2022-10-31T07:29:11.133Z,9.18
2022-10-31T07:31:38.562Z,3.67
2022-10-31T07:34:12.465Z,9.35
2022-10-31T07:36:57.914Z,6.13
2022-10-31T07:39:25.066Z,11.57
2022-10-31T07:41:52.312Z,6.35
2022-10-31T07:44:20.073Z,8.88
2022-10-31T07:47:05.557Z,6.03
2022-10-31T07:49:51.186Z,8.73
2022-10-31T07:52:36.902Z,8.00
2022-10-31T07:55:22.428Z,5.25
2022-10-31T07:57:57.757Z,4.78
2022-10-31T08:00:24.984Z,9.20
2022-10-31T08:03:19.139Z,8.13
2022-10-31T08:06:04.391Z,10.60
2022-10-31T08:08:51.286Z,6.07
2022-10-31T08:11:19.423Z,7.93
2022-10-31T08:13:48.400Z,7.18
2022-10-31T08:16:15.943Z,13.25
2022-10-31T08:18:56.568Z,9.27
2022-10-31T08:21:24.123Z,9.55
2022-10-31T08:23:51.166Z,11.10
2022-10-31T08:26:20.637Z,5.43
2022-10-31T08:28:50.824Z,5.40
2022-10-31T08:31:20.492Z,7.72
2022-10-31T08:33:47.499Z,8.02
2022-10-31T08:36:34.754Z,9.40
2022-10-31T08:39:15.169Z,7.22
2022-10-31T08:41:42.068Z,6.22
2022-10-31T08:44:12.714Z,5.00
2022-10-31T08:46:39.735Z,7.30
2022-10-31T08:49:06.923Z,8.10
2022-10-31T08:51:34.068Z,6.28
2022-10-31T08:54:01.621Z,3.90
2022-10-31T08:56:34.640Z,8.73
2022-10-31T08:59:04.332Z,9.15
2022-10-31T09:02:03.017Z,5.18
2022-10-31T09:04:30.518Z,4.57
2022-10-31T09:09:44.727Z,9.18
2022-10-31T09:12:11.711Z,6.28
2022-10-31T09:14:57.333Z,8.13
2022-10-31T09:17:30.119Z,11.55
2022-10-31T09:20:17.556Z,9.35
2022-10-31T09:22:44.788Z,4.32
2022-10-31T09:25:12.047Z,9.23
2022-10-31T09:27:40.675Z,6.00
2022-10-31T09:30:08.153Z,6.95
2022-10-31T09:32:35.624Z,3.83
2022-10-31T09:35:06.612Z,5.80
2022-10-31T09:37:33.545Z,6.55
2022-10-31T09:40:01.161Z,7.95
2022-10-31T09:43:06.648Z,10.07
2022-10-31T09:45:39.832Z,8.00
2022-10-31T09:48:42.777Z,7.05
2022-10-31T09:51:26.237Z,4.40
2022-10-31T09:54:20.963Z,5.57
2022-10-31T09:56:48.669Z,7.65
2022-10-31T09:59:29.063Z,7.97
2022-10-31T10:01:57.913Z,7.30
2022-10-31T10:04:47.791Z,10.52
2022-10-31T10:07:33.398Z,11.25
2022-10-31T10:10:32.110Z,9.05
2022-10-31T10:13:39.717Z,6.40
2022-10-31T10:16:12.532Z,8.50
2022-10-31T10:19:07.050Z,5.88
2022-10-31T10:21:48.103Z,9.02
2022-10-31T10:24:20.918Z,5.35
2022-10-31T10:27:06.295Z,5.38
2022-10-31T10:29:48.662Z,8.15
2022-10-31T10:32:23.625Z,9.68
2022-10-31T10:35:18.586Z,8.70
2022-10-31T10:37:48.096Z,12.82
2022-10-31T10:40:16.968Z,7.55
2022-10-31T10:43:21.855Z,6.13
2022-10-31T10:46:11.816Z,6.15
2022-10-31T10:48:53.915Z,5.57
2022-10-31T10:51:39.069Z,10.77
2022-10-31T10:54:39.384Z,4.88
2022-10-31T10:57:14.015Z,5.53
2022-10-31T10:59:41.058Z,6.57
2022-10-31T11:02:20.190Z,6.03
2022-10-31T11:04:52.803Z,11.27
2022-10-31T11:07:19.787Z,9.90
2022-10-31T11:09:47.685Z,9.50
2022-10-31T11:12:34.922Z,6.80
2022-10-31T11:15:09.001Z,7.88
2022-10-31T11:17:40.290Z,9.85
2022-10-31T11:20:16.349Z,5.85
2022-10-31T11:22:47.773Z,4.18
2022-10-31T11:25:20.736Z,5.18
2022-10-31T11:27:48.092Z,6.63
2022-10-31T11:30:15.789Z,8.52
2022-10-31T11:32:53.403Z,5.32
2022-10-31T11:35:22.541Z,7.93
2022-10-31T11:37:52.046Z,9.40
2022-10-31T11:40:22.001Z,7.20
2022-10-31T11:42:50.871Z,6.55
2022-10-31T11:45:34.637Z,6.07
2022-10-31T11:48:04.169Z,10.02
2022-10-31T11:50:42.898Z,5.05
2022-10-31T11:53:18.056Z,6.20
2022-10-31T11:55:47.446Z,11.57
2022-10-31T11:58:25.921Z,6.95
2022-10-31T12:00:57.920Z,6.10
2022-10-31T12:03:24.734Z,7.88
2022-10-31T12:06:10.001Z,9.60
2022-10-31T12:08:38.309Z,9.18
2022-10-31T12:11:31.851Z,13.15
2022-10-31T12:14:03.705Z,8.65
2022-10-31T12:16:48.081Z,11.32
2022-10-31T12:19:33.129Z,5.80
2022-10-31T12:22:23.771Z,9.80
2022-10-31T12:25:16.582Z,10.82
2022-10-31T12:28:00.996Z,7.93
2022-10-31T12:30:41.135Z,10.00
2022-10-31T12:33:34.057Z,6.95
2022-10-31T12:36:19.197Z,7.10
2022-10-31T12:39:11.154Z,6.10
2022-10-31T12:41:49.384Z,10.95
2022-10-31T12:44:46.569Z,6.70
2022-10-31T12:47:45.831Z,6.60
2022-10-31T12:50:36.060Z,7.07
2022-10-31T12:56:01.365Z,9.27
2022-10-31T12:58:42.191Z,9.75
2022-10-31T13:01:15.763Z,9.77
2022-10-31T13:04:06.350Z,4.88
2022-10-31T13:06:44.653Z,7.53
2022-10-31T13:09:18.202Z,9.90
2022-10-31T13:11:49.703Z,7.95
2022-10-31T13:14:45.786Z,6.90
2022-10-31T13:17:31.918Z,5.85
2022-10-31T13:20:16.299Z,6.53
2022-10-31T13:22:47.491Z,8.05
2022-10-31T13:25:39.088Z,6.80
2022-10-31T13:28:24.768Z,8.57
2022-10-31T13:30:53.886Z,5.75
2022-10-31T13:33:34.063Z,10.23
2022-10-31T13:36:07.122Z,8.02
2022-10-31T13:38:49.823Z,6.18
2022-10-31T13:41:25.596Z,6.20
2022-10-31T13:43:52.435Z,9.77
2022-10-31T13:46:34.781Z,8.95
2022-10-31T13:49:01.827Z,6.88
2022-10-31T13:51:35.103Z,5.85
2022-10-31T13:54:20.085Z,6.55
2022-10-31T13:56:51.309Z,7.20
2022-10-31T13:59:23.017Z,6.70
2022-10-31T14:01:56.022Z,5.80
2022-10-31T14:04:31.005Z,6.38
2022-10-31T14:06:59.477Z,6.22
2022-10-31T14:09:32.918Z,4.93
2022-10-31T14:12:03.994Z,3.92
2022-10-31T14:14:36.372Z,7.28
2022-10-31T14:17:04.130Z,4.32
2022-10-31T14:19:31.133Z,7.60
2022-10-31T14:21:58.045Z,7.45
2022-10-31T14:24:24.944Z,4.38
2022-10-31T14:27:20.928Z,3.80
2022-10-31T14:29:50.654Z,5.38
2022-10-31T14:32:19.194Z,8.10
2022-10-31T14:34:55.872Z,14.52
2022-10-31T14:38:08.020Z,11.85
2022-10-31T14:40:47.446Z,9.45
2022-10-31T14:43:39.809Z,4.22
2022-10-31T14:46:18.278Z,4.55
2022-10-31T14:48:54.248Z,8.80
2022-10-31T14:51:23.641Z,6.80
2022-10-31T14:53:55.070Z,7.78
2022-10-31T14:56:28.946Z,7.07
2022-10-31T14:59:01.114Z,8.85
2022-10-31T15:01:35.917Z,6.63
2022-10-31T15:04:28.940Z,6.88
2022-10-31T15:07:06.803Z,9.35
2022-10-31T15:09:38.744Z,8.27
2022-10-31T15:12:25.720Z,5.28
2022-10-31T15:14:53.312Z,6.07
2022-10-31T15:17:21.781Z,6.57
2022-10-31T15:19:49.112Z,10.73
2022-10-31T15:22:18.638Z,11.10
2022-10-31T15:24:46.106Z,12.77
2022-10-31T15:27:18.573Z,12.27
2022-10-31T15:29:56.575Z,8.30
2022-10-31T15:32:25.127Z,9.55
2022-10-31T15:34:53.682Z,12.40
2022-10-31T15:37:22.844Z,9.10
2022-10-31T15:39:50.660Z,5.80
2022-10-31T15:42:20.728Z,7.15
2022-10-31T15:44:54.247Z,9.73
2022-10-31T15:47:25.308Z,7.10
2022-10-31T15:49:57.116Z,6.47
2022-10-31T15:52:48.600Z,8.55
2022-10-31T15:55:17.285Z,9.00
2022-10-31T15:57:47.052Z,8.00
2022-10-31T16:00:24.868Z,7.43
2022-10-31T16:03:06.743Z,8.43
2022-10-31T16:05:40.498Z,8.80
2022-10-31T16:08:32.170Z,8.48
2022-10-31T16:11:00.429Z,9.07
2022-10-31T16:13:29.610Z,8.90
2022-10-31T16:16:28.909Z,9.88
2022-10-31T16:18:49.122Z,9.60
2022-10-31T16:21:16.048Z,14.05
2022-10-31T16:23:48.792Z,26.48
2022-10-31T16:26:19.411Z,22.13
2022-10-31T16:29:03.421Z,22.42
2022-10-31T16:31:39.303Z,35.00
2022-10-31T16:34:11.593Z,27.60
2022-10-31T16:36:40.192Z,17.92
2022-10-31T16:39:07.931Z,18.45
2022-10-31T16:41:40.978Z,25.45
2022-10-31T16:44:16.109Z,32.38
2022-10-31T16:46:43.411Z,27.60
2022-10-31T16:49:11.209Z,28.05
2022-10-31T16:51:38.358Z,26.48
2022-10-31T16:54:05.411Z,23.33
2022-10-31T16:56:34.698Z,21.00
2022-10-31T16:59:04.941Z,17.67
2022-10-31T17:01:32.465Z,19.60
2022-10-31T17:03:59.453Z,21.52
2022-10-31T17:06:28.504Z,13.02
2022-10-31T17:08:55.640Z,14.13
2022-10-31T17:11:25.978Z,10.80
2022-10-31T17:13:54.494Z,11.77
2022-10-31T17:16:21.438Z,15.60
2022-10-31T17:18:48.484Z,13.95
2022-10-31T17:21:23.448Z,28.17
2022-10-31T17:23:51.159Z,18.42
2022-10-31T17:26:18.977Z,15.23
2022-10-31T17:28:46.327Z,33.17
2022-10-31T17:31:27.120Z,26.88
2022-10-31T17:34:01.811Z,25.83
2022-10-31T17:36:31.064Z,22.60
2022-10-31T17:38:58.136Z,18.58
2022-10-31T17:41:25.053Z,17.35
2022-10-31T17:43:58.925Z,17.10
2022-10-31T17:46:27.023Z,16.48
2022-10-31T17:48:53.917Z,21.73
2022-10-31T17:51:20.777Z,13.48
2022-10-31T17:53:48.053Z,14.70
2022-10-31T17:56:14.870Z,17.27
2022-10-31T17:58:41.801Z,18.60
2022-10-31T18:01:13.836Z,11.07
2022-10-31T18:03:41.244Z,18.75
2022-10-31T18:06:08.815Z,11.55
2022-10-31T18:08:38.160Z,10.68
2022-10-31T18:11:10.998Z,10.15
2022-10-31T18:13:38.737Z,11.57
2022-10-31T18:16:10.411Z,13.40
2022-10-31T18:18:37.245Z,13.07
2022-10-31T18:21:04.536Z,13.13
2022-10-31T18:23:31.542Z,10.70
2022-10-31T18:25:58.482Z,12.65
2022-10-31T18:28:25.576Z,12.82
2022-10-31T18:30:52.439Z,12.02
2022-10-31T18:33:19.655Z,15.35
2022-10-31T18:35:46.530Z,13.73
2022-10-31T18:38:13.472Z,10.35
2022-10-31T18:40:40.330Z,8.10
2022-10-31T18:43:07.363Z,12.32
2022-10-31T18:45:46.508Z,13.80
2022-10-31T18:48:15.621Z,10.02
2022-10-31T18:50:43.073Z,11.30
2022-10-31T18:53:10.041Z,11.38
2022-10-31T18:55:47.276Z,15.10
2022-10-31T18:58:16.470Z,14.50
2022-10-31T19:00:43.378Z,18.40
2022-10-31T19:03:10.203Z,13.00
2022-10-31T19:05:37.048Z,11.38
2022-10-31T19:08:04.372Z,13.52
2022-10-31T19:10:31.333Z,15.55
2022-10-31T19:12:58.250Z,15.15
2022-10-31T19:15:26.089Z,14.68
2022-10-31T19:17:52.930Z,12.27
2022-10-31T19:20:19.843Z,11.35
2022-10-31T19:22:46.780Z,12.35
2022-10-31T19:25:13.752Z,19.75
2022-10-31T19:27:40.619Z,14.35
2022-10-31T19:30:08.166Z,12.90
2022-10-31T19:32:35.082Z,15.70
2022-10-31T19:35:02.864Z,13.10
2022-10-31T19:37:29.715Z,11.20
2022-10-31T19:39:56.529Z,13.90
2022-10-31T19:42:24.366Z,13.43
2022-10-31T19:44:51.161Z,14.77
2022-10-31T19:47:18.151Z,16.02
2022-10-31T19:49:45.008Z,19.58
2022-10-31T19:52:12.038Z,16.45
2022-10-31T19:54:38.856Z,12.73
2022-10-31T19:57:05.748Z,14.00
2022-10-31T19:59:36.699Z,13.98
2022-10-31T20:02:06.567Z,14.88
2022-10-31T20:04:33.569Z,11.82
2022-10-31T20:07:00.527Z,14.07
2022-10-31T20:09:27.424Z,12.57
2022-10-31T20:11:54.258Z,22.75
2022-10-31T20:14:21.063Z,13.23
2022-10-31T20:16:47.979Z,12.77
2022-10-31T20:19:14.805Z,17.17
2022-10-31T20:21:42.035Z,12.88
2022-10-31T20:24:10.834Z,14.48
2022-10-31T20:26:40.831Z,15.95
2022-10-31T20:29:10.062Z,13.38
2022-10-31T20:31:37.367Z,15.60
2022-10-31T20:34:04.285Z,16.27
2022-10-31T20:36:31.255Z,13.32
2022-10-31T20:38:58.882Z,12.00
2022-10-31T20:41:26.048Z,14.82
2022-10-31T20:43:52.974Z,15.88
2022-10-31T20:46:23.507Z,14.63
2022-10-31T20:48:51.327Z,14.68
2022-10-31T20:51:21.473Z,12.90
2022-10-31T20:53:52.937Z,20.65
2022-10-31T20:56:22.198Z,15.38
2022-10-31T20:58:49.489Z,17.75
2022-10-31T21:01:28.895Z,18.40
2022-10-31T21:03:56.132Z,18.75
2022-10-31T21:06:23.549Z,16.15
2022-10-31T21:08:51.366Z,18.55
2022-10-31T21:11:20.348Z,16.42
2022-10-31T21:13:48.630Z,17.00
2022-10-31T21:16:20.990Z,17.15
2022-10-31T21:18:49.646Z,16.60
2022-10-31T21:21:32.093Z,18.48
2022-10-31T21:24:20.944Z,20.90
2022-10-31T21:26:51.208Z,16.25
2022-10-31T21:29:20.036Z,18.55
2022-10-31T21:31:47.899Z,17.95
2022-10-31T21:34:15.169Z,16.92
2022-10-31T21:36:42.111Z,14.38
2022-10-31T21:39:09.934Z,22.58
2022-10-31T21:41:36.869Z,15.65
2022-10-31T21:44:04.476Z,17.77
2022-10-31T21:46:33.099Z,17.20
2022-10-31T21:49:02.535Z,19.48
2022-10-31T21:51:32.245Z,15.75
2022-10-31T21:54:18.286Z,20.30
2022-10-31T21:56:45.764Z,14.30
2022-10-31T21:59:13.252Z,15.32
2022-10-31T22:01:40.974Z,12.15
2022-10-31T22:04:08.488Z,13.68
2022-10-31T22:06:36.184Z,11.68
2022-10-31T22:09:04.983Z,18.08
2022-10-31T22:11:32.130Z,13.23
2022-10-31T22:14:00.488Z,15.85
2022-10-31T22:16:29.655Z,17.25
2022-10-31T22:18:58.813Z,21.00
2022-10-31T22:21:27.577Z,15.30
2022-10-31T22:24:01.987Z,12.88
2022-10-31T22:26:32.639Z,14.32
2022-10-31T22:29:00.742Z,18.17
2022-10-31T22:31:29.302Z,16.77
2022-10-31T22:33:56.740Z,21.25
2022-10-31T22:36:26.774Z,13.80
2022-10-31T22:38:54.264Z,16.65
2022-10-31T22:41:24.058Z,15.25
2022-10-31T22:43:51.378Z,16.13
2022-10-31T22:46:27.167Z,16.88
2022-10-31T22:49:00.291Z,18.92
2022-10-31T22:51:32.604Z,16.88
2022-10-31T22:53:59.760Z,19.80
2022-10-31T22:56:34.094Z,18.52
2022-10-31T22:59:01.918Z,15.40
2022-10-31T23:01:32.134Z,17.10
2022-10-31T23:04:00.440Z,16.42
2022-10-31T23:06:30.371Z,18.58
2022-10-31T23:08:59.007Z,16.10
2022-10-31T23:11:34.931Z,17.63
2022-10-31T23:14:09.747Z,19.90
2022-10-31T23:16:41.487Z,17.60
2022-10-31T23:19:10.042Z,21.20
2022-10-31T23:22:09.109Z,18.00
2022-10-31T23:24:44.687Z,17.95
2022-10-31T23:27:11.669Z,17.08
2022-10-31T23:29:48.192Z,14.63
2022-10-31T23:32:20.892Z,16.02
2022-10-31T23:35:01.445Z,16.33
2022-10-31T23:37:31.138Z,16.88
2022-10-31T23:39:58.599Z,22.27
2022-10-31T23:42:26.526Z,20.80
2022-10-31T23:44:53.501Z,18.98
2022-10-31T23:47:21.171Z,23.48
2022-10-31T23:49:48.529Z,21.00
2022-10-31T23:52:16.034Z,18.38
2022-10-31T23:54:43.051Z,16.40
2022-10-31T23:57:12.156Z,18.85
2022-10-31T23:59:39.221Z,18.95
